Terminal Aerodrome Forecast
Issued by NWS Atlanta, GA

Home | Current Version | Previous Version | Text Only | Print | Product List | Glossary On
Versions: 1 2 3 4 5 6 7 8 9 10 11 12 13 14 15 16 17 18 19 20 21 22 23 24 25 26 27 28 29 30 31
000
FTUS42 KFFC 220536
TAFCSG
TAF
KCSG 220536Z 2206/2306 20007KT 3SM RA BR SCT005 BKN035
      TEMPO 2206/2210 VRB15G30KT 2SM TSRA OVC005CB
     FM221000 19010G18KT 3SM TSRA BR OVC005CB
     FM221500 20010KT P6SM VCSH BKN015 PROB30 2219/2223 VRB15G30KT
      3SM TSRA BKN009CB
     FM230000 23012KT 5SM -RA BR BKN025 BKN150=

USA.gov is the U.S. government's official web portal to all federal, state and local government web resources and services.